Time;durP1;ratioP1;P1;durP2;ratioP2;P2;SDS_P1;SDS_P2;PMS_P1;PMS_P2;Temp;Humidity;BMP_temperature;BMP_pressure;BME280_temperature;BME280_humidity;BME280_pressure;Samples;Min_cycle;Max_cycle;Signal;HPM_P1;HPM_P2
2022/08/13 00:01:40;;;;;;;7.22;2.33;;;21.80;43.70;;;;;;5052453;28;20629;-39
2022/08/13 00:04:12;;;;;;;5.07;2.28;;;21.80;43.90;;;;;;5052423;28;20035;-38
2022/08/13 00:09:06;;;;;;;4.43;1.73;;;21.70;44.00;;;;;;5055581;28;20075;-39
2022/08/13 00:14:17;;;;;;;7.85;1.45;;;21.60;44.40;;;;;;5056300;28;20040;-39
2022/08/13 00:16:44;;;;;;;3.50;1.60;;;21.60;44.30;;;;;;5056177;28;20028;-39
2022/08/13 00:19:10;;;;;;;5.78;1.80;;;21.50;44.60;;;;;;5038119;28;20082;-39
2022/08/13 00:21:36;;;;;;;2.05;1.52;;;21.40;44.80;;;;;;5054417;28;20068;-39
2022/08/13 00:24:02;;;;;;;5.25;2.00;;;21.50;44.60;;;;;;5056593;28;20381;-39
2022/08/13 00:26:28;;;;;;;3.38;1.80;;;21.50;44.60;;;;;;5055839;28;20017;-38
2022/08/13 00:28:55;;;;;;;1.83;1.50;;;21.30;44.80;;;;;;5056375;28;20460;-39
2022/08/13 00:31:24;;;;;;;4.75;1.70;;;21.30;44.90;;;;;;5055826;28;20029;-38
2022/08/13 00:33:50;;;;;;;4.50;1.48;;;21.30;45.10;;;;;;5055960;28;20029;-38
2022/08/13 00:36:16;;;;;;;4.65;1.73;;;21.30;45.20;;;;;;5055872;28;20107;-37
2022/08/13 00:38:44;;;;;;;3.58;1.38;;;21.30;45.40;;;;;;5054921;28;20033;-37
2022/08/13 00:41:37;;;;;;;8.60;1.90;;;21.20;45.30;;;;;;5054454;28;20420;-38
2022/08/13 00:43:58;;;;;;;2.40;1.70;;;21.30;45.00;;;;;;5055926;28;20087;-38
2022/08/13 00:46:24;;;;;;;1.95;1.20;;;21.30;45.20;;;;;;5055953;28;20021;-38
2022/08/13 00:48:50;;;;;;;4.20;1.77;;;21.10;45.40;;;;;;5055982;28;20420;-38
2022/08/13 00:51:16;;;;;;;4.82;2.08;;;21.00;45.60;;;;;;5056307;28;20056;-37
2022/08/13 00:53:43;;;;;;;3.08;1.65;;;20.90;45.70;;;;;;5055842;28;20024;-37
2022/08/13 00:56:10;;;;;;;2.38;1.67;;;20.90;45.80;;;;;;5055866;28;20500;-45
2022/08/13 00:58:38;;;;;;;1.98;1.45;;;20.90;45.90;;;;;;5056133;28;20028;-38
2022/08/13 01:01:05;;;;;;;1.52;1.40;;;20.90;46.00;;;;;;5055579;28;20029;-40
2022/08/13 01:03:34;;;;;;;4.35;1.80;;;20.80;45.90;;;;;;5055487;28;20032;-38
2022/08/13 01:06:01;;;;;;;4.10;1.40;;;20.90;46.00;;;;;;5055459;28;20044;-38
2022/08/13 01:08:32;;;;;;;3.13;1.50;;;20.80;45.90;;;;;;5055255;28;20029;-38
2022/08/13 01:11:04;;;;;;;2.83;1.40;;;20.90;45.90;;;;;;5055203;28;20021;-39
2022/08/13 01:13:36;;;;;;;4.63;1.88;;;21.00;45.80;;;;;;5055220;28;20477;-38
2022/08/13 01:16:04;;;;;;;2.10;1.23;;;20.90;45.80;;;;;;5055202;28;20032;-38
2022/08/13 01:18:31;;;;;;;3.85;1.20;;;20.90;46.00;;;;;;5054938;28;20067;-38
2022/08/13 01:21:02;;;;;;;3.72;1.52;;;20.80;46.00;;;;;;5054741;28;20048;-38
2022/08/13 01:23:29;;;;;;;6.47;1.83;;;20.80;46.10;;;;;;5054966;28;20029;-38
2022/08/13 01:25:59;;;;;;;5.60;1.90;;;20.80;46.20;;;;;;5054768;28;20021;-37
2022/08/13 01:28:28;;;;;;;2.85;1.40;;;20.80;46.40;;;;;;5055046;28;20024;-39
2022/08/13 01:30:57;;;;;;;5.33;1.53;;;20.80;46.50;;;;;;5055062;28;20044;-38
2022/08/13 01:33:24;;;;;;;3.28;1.42;;;20.90;46.20;;;;;;5054904;28;20025;-38
2022/08/13 01:35:52;;;;;;;1.45;1.35;;;20.80;46.40;;;;;;5054669;28;20036;-39
2022/08/13 01:38:22;;;;;;;3.03;1.60;;;20.80;46.80;;;;;;5053354;28;20434;-39
2022/08/13 01:40:48;;;;;;;4.47;1.52;;;20.70;46.90;;;;;;5054904;28;20028;-38
2022/08/13 01:43:17;;;;;;;4.00;1.40;;;20.70;46.80;;;;;;5054809;28;20489;-40
2022/08/13 01:45:44;;;;;;;1.45;1.35;;;20.70;46.90;;;;;;5054516;28;20021;-39
2022/08/13 01:50:54;;;;;;;1.75;1.35;;;20.50;47.50;;;;;;5054896;28;20036;-38
2022/08/13 01:53:20;;;;;;;11.50;1.60;;;20.50;47.60;;;;;;5054275;28;20419;-39
2022/08/13 01:55:52;;;;;;;2.28;1.63;;;20.40;47.90;;;;;;5054481;28;20461;-39
2022/08/13 01:58:29;;;;;;;3.50;1.60;;;20.40;48.10;;;;;;5054603;28;20017;-38
2022/08/13 02:01:01;;;;;;;5.78;1.25;;;20.30;48.10;;;;;;5054388;28;20215;-38
2022/08/13 02:03:27;;;;;;;4.53;1.10;;;20.30;48.10;;;;;;5054596;28;20484;-38
2022/08/13 02:05:55;;;;;;;2.78;1.15;;;20.30;48.30;;;;;;5054042;28;20099;-37
2022/08/13 02:08:24;;;;;;;6.45;1.63;;;20.30;48.20;;;;;;5054354;28;20032;-39
2022/08/13 02:10:53;;;;;;;3.30;1.30;;;20.30;48.20;;;;;;5053994;28;20027;-38
2022/08/13 02:13:22;;;;;;;3.90;1.50;;;20.30;48.30;;;;;;5054161;28;20021;-38
2022/08/13 02:15:49;;;;;;;2.22;1.52;;;20.30;48.50;;;;;;5054266;28;20172;-39
2022/08/13 02:18:17;;;;;;;1.88;1.48;;;20.30;48.60;;;;;;5052645;28;20040;-39
2022/08/13 02:20:45;;;;;;;8.93;1.92;;;20.20;48.80;;;;;;5053548;28;20094;-39
2022/08/13 02:23:16;;;;;;;3.72;1.25;;;20.10;48.90;;;;;;5053685;28;20056;-37
2022/08/13 02:25:43;;;;;;;4.82;1.38;;;20.10;49.20;;;;;;5052492;28;20032;-37
2022/08/13 02:28:10;;;;;;;2.75;1.48;;;20.10;49.30;;;;;;5053760;28;20049;-38
2022/08/13 02:30:36;;;;;;;3.42;1.73;;;20.00;49.40;;;;;;5053437;28;20417;-38
2022/08/13 02:33:03;;;;;;;3.97;1.67;;;19.90;49.50;;;;;;5053780;28;20155;-39
2022/08/13 02:35:29;;;;;;;2.03;1.58;;;19.80;49.70;;;;;;5053585;28;20033;-37
2022/08/13 02:37:55;;;;;;;2.45;1.52;;;19.80;49.90;;;;;;5053772;28;20025;-37
2022/08/13 02:43:05;;;;;;;4.18;1.48;;;19.70;50.20;;;;;;5053468;28;20438;-38
2022/08/13 02:45:31;;;;;;;2.53;1.63;;;19.70;50.50;;;;;;5053653;28;20017;-38
2022/08/13 02:47:57;;;;;;;1.75;1.33;;;19.70;50.80;;;;;;5053304;28;20100;-39
2022/08/13 02:50:24;;;;;;;1.88;1.20;;;19.60;50.90;;;;;;5053500;28;20029;-39
2022/08/13 02:52:51;;;;;;;1.60;1.02;;;19.60;50.90;;;;;;5053155;28;20064;-38
2022/08/13 02:55:22;;;;;;;7.07;2.08;;;19.50;51.10;;;;;;5053212;28;20361;-37
2022/08/13 02:57:49;;;;;;;2.60;1.60;;;19.50;51.00;;;;;;5053117;28;20033;-38
2022/08/13 03:00:17;;;;;;;2.10;1.90;;;19.50;51.10;;;;;;5053176;28;20039;-38
2022/08/13 03:02:44;;;;;;;3.70;1.52;;;19.50;51.20;;;;;;5053251;28;20496;-38
2022/08/13 03:05:15;;;;;;;5.68;1.88;;;19.60;51.00;;;;;;5051878;28;20045;-38
2022/08/13 03:07:41;;;;;;;;;;;19.60;50.80;;;;;;5053535;28;20021;-38
2022/08/13 03:10:13;;;;;;;4.75;1.65;;;19.50;50.90;;;;;;5051721;28;19915;-38
2022/08/13 03:12:46;;;;;;;3.08;1.42;;;19.60;51.00;;;;;;5053222;28;20025;-39
2022/08/13 03:15:13;;;;;;;3.17;1.70;;;19.50;51.00;;;;;;5053009;28;20025;-39
2022/08/13 03:17:41;;;;;;;2.88;1.52;;;19.40;51.20;;;;;;5052916;28;20053;-39
2022/08/13 03:20:09;;;;;;;4.95;1.63;;;19.40;51.30;;;;;;5053113;28;20071;-38
2022/08/13 03:22:53;;;;;;;4.05;1.40;;;19.30;51.50;;;;;;5052736;28;20045;-39
2022/08/13 03:25:20;;;;;;;2.83;2.25;;;19.30;51.80;;;;;;5051549;28;20021;-38
2022/08/13 03:27:47;;;;;;;1.90;1.58;;;19.30;51.90;;;;;;5051992;28;20017;-38
2022/08/13 03:30:16;;;;;;;1.95;1.60;;;19.30;52.00;;;;;;5052788;28;20496;-38
2022/08/13 03:32:44;;;;;;;2.72;1.20;;;19.30;51.90;;;;;;5052981;28;20029;-38
2022/08/13 03:35:21;;;;;;;2.95;1.65;;;19.30;52.10;;;;;;5052675;28;20024;-38
2022/08/13 03:37:53;;;;;;;4.72;1.77;;;19.30;52.30;;;;;;5053032;28;20524;-38
2022/08/13 03:40:20;;;;;;;5.63;1.75;;;19.30;52.30;;;;;;5052915;28;20311;-38
2022/08/13 03:42:48;;;;;;;4.13;1.88;;;19.20;52.30;;;;;;5053113;28;20052;-38
2022/08/13 03:45:15;;;;;;;2.53;1.98;;;19.20;52.60;;;;;;5055392;28;20139;-41
2022/08/13 03:47:42;;;;;;;2.03;1.30;;;19.00;52.90;;;;;;5057094;28;20326;-38
2022/08/13 03:50:09;;;;;;;3.88;1.95;;;19.00;53.10;;;;;;5056579;28;20044;-38
2022/08/13 03:52:36;;;;;;;6.53;2.17;;;18.90;53.40;;;;;;5056859;28;20151;-38
2022/08/13 03:55:04;;;;;;;2.25;1.73;;;18.90;53.30;;;;;;5056888;28;20453;-38
2022/08/13 19:21:27;;;;;;;6.80;3.60;;;27.60;36.90;;;;;;5122903;27;20391;-39
2022/08/13 19:23:54;;;;;;;11.40;3.95;;;27.50;37.00;;;;;;5090794;28;20033;-39
2022/08/13 19:26:19;;;;;;;4.97;3.50;;;27.60;37.00;;;;;;5090400;28;20051;-39
2022/08/13 19:28:46;;;;;;;4.07;3.45;;;27.60;37.00;;;;;;5090377;28;20032;-39
2022/08/13 19:31:11;;;;;;;4.57;3.70;;;27.50;37.30;;;;;;5090586;28;20422;-37
2022/08/13 19:33:37;;;;;;;5.00;3.58;;;27.50;37.30;;;;;;5090376;28;20032;-40
2022/08/13 19:36:03;;;;;;;7.57;3.63;;;27.50;37.60;;;;;;5090093;28;20086;-38
2022/08/13 19:38:29;;;;;;;4.32;3.78;;;27.40;37.80;;;;;;5124181;28;20020;-40
2022/08/13 19:40:55;;;;;;;5.70;3.75;;;27.40;37.90;;;;;;5105470;28;20054;-41
2022/08/13 19:43:26;;;;;;;6.47;3.45;;;27.30;38.10;;;;;;5110738;28;20432;-39
2022/08/13 19:45:57;;;;;;;5.47;3.50;;;27.30;38.20;;;;;;5109304;28;20157;-39
2022/08/13 19:48:24;;;;;;;5.00;3.20;;;27.30;38.30;;;;;;5110106;28;20051;-38
2022/08/13 19:50:51;;;;;;;4.63;3.33;;;27.20;38.40;;;;;;5110272;28;20059;-38
2022/08/13 19:53:18;;;;;;;4.97;4.00;;;27.20;38.60;;;;;;5110478;28;20024;-39
2022/08/13 19:55:44;;;;;;;4.30;3.90;;;27.10;38.80;;;;;;5109341;28;20472;-40
2022/08/13 19:58:10;;;;;;;4.72;4.15;;;27.00;38.90;;;;;;5109363;28;20099;-41
2022/08/13 20:00:36;;;;;;;6.55;4.03;;;27.00;39.10;;;;;;5111074;28;20083;-39
2022/08/13 20:03:03;;;;;;;8.38;3.80;;;26.90;39.30;;;;;;5110085;28;20039;-39
2022/08/13 20:05:33;;;;;;;3.70;3.28;;;26.80;39.60;;;;;;5110804;28;20028;-40
2022/08/13 20:08:00;;;;;;;5.57;3.65;;;26.80;39.70;;;;;;5110493;28;20022;-39
2022/08/13 20:10:29;;;;;;;5.15;3.78;;;26.70;39.90;;;;;;5110021;28;20028;-39
2022/08/13 20:12:55;;;;;;;5.90;3.78;;;26.70;40.10;;;;;;5109829;28;20080;-38
2022/08/13 20:15:23;;;;;;;4.32;3.47;;;26.60;40.30;;;;;;5108658;28;20038;-39
2022/08/13 20:17:50;;;;;;;5.03;3.70;;;26.50;40.50;;;;;;5108576;28;20024;-40
2022/08/13 20:20:19;;;;;;;4.38;3.47;;;26.50;40.70;;;;;;5108287;28;20107;-41
2022/08/13 20:22:47;;;;;;;5.88;3.83;;;26.50;40.70;;;;;;5110074;28;20118;-41
2022/08/13 20:25:13;;;;;;;6.63;3.72;;;26.40;40.80;;;;;;5109889;28;20042;-41
2022/08/13 20:27:41;;;;;;;5.20;3.92;;;26.40;41.00;;;;;;5110309;28;20027;-39
2022/08/13 20:30:10;;;;;;;6.70;3.70;;;26.40;41.10;;;;;;5108594;28;20059;-41
2022/08/13 20:32:36;;;;;;;4.60;3.80;;;26.30;41.30;;;;;;5094660;28;20039;-39
2022/08/13 20:35:05;;;;;;;7.00;4.63;;;26.30;41.40;;;;;;5095210;28;20087;-38
2022/08/13 20:37:31;;;;;;;6.23;3.50;;;26.30;41.60;;;;;;5094924;28;20028;-40
2022/08/13 20:39:57;;;;;;;6.72;3.85;;;26.30;41.80;;;;;;5094812;28;20081;-39
2022/08/13 20:42:23;;;;;;;7.18;4.25;;;26.30;41.70;;;;;;5094959;28;20023;-39
2022/08/13 20:44:51;;;;;;;5.95;3.70;;;26.30;41.90;;;;;;5096031;28;20074;-39
2022/08/13 20:47:17;;;;;;;6.97;4.05;;;26.20;42.00;;;;;;5096108;28;20031;-39
2022/08/13 20:49:44;;;;;;;4.38;3.83;;;26.20;42.10;;;;;;5095707;28;20027;-42
2022/08/13 20:52:10;;;;;;;5.45;3.88;;;26.20;42.20;;;;;;5095832;28;20028;-41
2022/08/13 20:54:36;;;;;;;4.85;3.55;;;26.10;42.30;;;;;;5096018;28;20035;-40
2022/08/13 20:57:02;;;;;;;8.85;3.67;;;26.20;42.40;;;;;;5096001;28;20028;-39
2022/08/13 20:59:28;;;;;;;4.63;3.38;;;26.20;42.40;;;;;;5095621;28;20045;-39
2022/08/13 21:01:53;;;;;;;7.97;4.03;;;26.20;42.30;;;;;;5095953;28;20103;-39
2022/08/13 21:04:19;;;;;;;6.80;4.00;;;26.10;42.60;;;;;;5095690;28;20020;-38
2022/08/13 21:06:45;;;;;;;3.95;3.55;;;26.10;42.70;;;;;;5095778;28;20055;-40
2022/08/13 21:09:10;;;;;;;13.32;4.28;;;26.10;42.80;;;;;;5095654;28;20034;-39
2022/08/13 21:11:36;;;;;;;3.83;3.42;;;26.00;43.00;;;;;;5095900;28;20077;-41
2022/08/13 21:14:07;;;;;;;7.68;3.90;;;26.00;43.00;;;;;;5095519;28;20028;-39
2022/08/13 21:16:33;;;;;;;5.68;4.32;;;25.80;43.50;;;;;;5095371;28;20074;-39
2022/08/13 21:18:58;;;;;;;9.10;3.78;;;25.80;43.70;;;;;;5094900;28;20020;-39
2022/08/13 21:21:24;;;;;;;6.03;4.88;;;25.80;43.80;;;;;;5095204;28;20031;-39
2022/08/13 21:23:50;;;;;;;6.05;3.88;;;25.80;44.00;;;;;;5095165;28;20023;-40
2022/08/13 21:26:16;;;;;;;3.78;3.42;;;25.80;43.90;;;;;;5093887;28;20017;-39
2022/08/13 21:28:41;;;;;;;10.90;4.35;;;25.70;44.00;;;;;;5095084;28;20024;-40
2022/08/13 21:31:07;;;;;;;5.07;4.07;;;25.70;44.40;;;;;;5094937;28;20028;-39
2022/08/13 21:33:33;;;;;;;7.40;4.60;;;25.60;44.50;;;;;;5095145;28;20038;-39
2022/08/13 21:35:58;;;;;;;5.13;4.28;;;25.50;44.60;;;;;;5095141;28;20107;-39
2022/08/13 21:38:24;;;;;;;4.95;3.42;;;25.40;44.80;;;;;;5095158;28;20047;-40
2022/08/13 21:40:50;;;;;;;13.88;4.03;;;25.50;45.00;;;;;;5094908;28;20035;-39
2022/08/13 21:43:16;;;;;;;5.60;3.55;;;25.50;45.10;;;;;;5093839;28;20024;-40
2022/08/13 21:45:42;;;;;;;4.38;3.65;;;25.30;45.20;;;;;;5094648;28;20088;-39
2022/08/13 21:48:08;;;;;;;6.28;3.70;;;25.30;45.40;;;;;;5094864;28;20099;-40
2022/08/13 21:50:34;;;;;;;4.55;4.10;;;25.30;45.70;;;;;;5094509;28;20020;-40
2022/08/13 21:53:02;;;;;;;4.75;4.07;;;25.40;45.50;;;;;;5093784;28;20024;-38
2022/08/13 21:55:28;;;;;;;5.55;4.10;;;25.40;45.60;;;;;;5094252;28;20089;-41
2022/08/13 21:57:55;;;;;;;12.48;4.43;;;25.20;46.00;;;;;;5094672;28;20468;-41
2022/08/13 22:00:31;;;;;;;7.18;4.40;;;25.20;46.10;;;;;;5093092;28;20031;-38
2022/08/13 22:03:01;;;;;;;4.57;3.95;;;25.20;46.30;;;;;;5092906;28;20024;-40
2022/08/13 22:05:26;;;;;;;;;;;25.20;46.40;;;;;;5094586;28;20024;-40
2022/08/13 22:07:52;;;;;;;5.45;3.70;;;25.10;46.60;;;;;;5094453;28;19915;-40
2022/08/13 22:10:19;;;;;;;5.78;3.92;;;25.10;46.70;;;;;;5094438;28;20028;-39
2022/08/13 22:12:46;;;;;;;5.88;4.13;;;25.00;47.00;;;;;;5094294;28;20027;-39
2022/08/13 22:15:12;;;;;;;6.13;4.50;;;24.90;47.20;;;;;;5094160;28;20054;-41
2022/08/13 22:17:39;;;;;;;7.78;4.18;;;24.90;47.30;;;;;;5093355;28;20020;-38
2022/08/13 22:20:07;;;;;;;5.22;3.88;;;24.80;47.50;;;;;;5093923;28;20126;-39
2022/08/13 22:22:33;;;;;;;4.38;3.97;;;24.80;47.80;;;;;;5093692;28;20169;-41
2022/08/13 22:24:59;;;;;;;5.72;4.22;;;24.70;48.00;;;;;;5093694;28;20106;-39
2022/08/13 22:27:25;;;;;;;4.47;4.07;;;24.70;48.30;;;;;;5092583;28;20079;-39
2022/08/13 22:32:35;;;;;;;5.72;3.72;;;24.70;48.60;;;;;;5094300;28;20057;-40
2022/08/13 22:35:01;;;;;;;6.82;3.58;;;24.70;48.60;;;;;;5093823;28;20485;-40
2022/08/13 22:37:27;;;;;;;4.65;3.88;;;24.60;48.80;;;;;;5092555;28;20028;-39
2022/08/13 22:39:54;;;;;;;5.55;4.20;;;24.60;48.80;;;;;;5093572;28;20403;-40
2022/08/13 22:42:20;;;;;;;4.03;3.28;;;24.50;49.10;;;;;;5093694;28;20024;-40
2022/08/13 22:44:47;;;;;;;4.18;3.70;;;24.40;49.20;;;;;;5092348;28;20387;-38
2022/08/13 22:47:12;;;;;;;5.25;4.30;;;24.30;49.60;;;;;;5092124;28;20031;-39
2022/08/13 22:49:38;;;;;;;4.35;3.95;;;24.30;49.80;;;;;;5093765;28;20028;-39
2022/08/13 22:52:04;;;;;;;6.10;4.07;;;24.40;49.80;;;;;;5092243;28;20024;-43
2022/08/13 22:54:30;;;;;;;5.78;3.85;;;24.40;49.70;;;;;;5093191;28;20034;-40
2022/08/13 22:56:56;;;;;;;5.05;3.42;;;24.30;50.00;;;;;;5092233;28;20101;-39
2022/08/13 22:59:21;;;;;;;10.45;5.40;;;24.20;50.30;;;;;;5093265;28;20035;-38
2022/08/13 23:01:47;;;;;;;4.47;3.85;;;24.20;50.50;;;;;;5093704;28;20096;-39
2022/08/13 23:04:15;;;;;;;7.80;4.60;;;24.20;50.50;;;;;;5093207;28;20108;-40
2022/08/13 23:06:41;;;;;;;4.80;4.00;;;24.10;50.80;;;;;;5093219;28;20016;-38
2022/08/13 23:09:09;;;;;;;4.55;4.10;;;24.00;51.00;;;;;;5092188;28;20463;-38
2022/08/13 23:11:37;;;;;;;4.32;3.60;;;24.10;51.10;;;;;;5093215;28;20531;-39
2022/08/13 23:14:03;;;;;;;6.38;4.50;;;24.10;51.00;;;;;;5091998;28;20449;-38
2022/08/13 23:16:29;;;;;;;5.38;4.15;;;24.10;51.10;;;;;;5093136;28;20027;-39
2022/08/13 23:18:56;;;;;;;5.93;4.35;;;24.10;51.30;;;;;;5092959;28;20028;-39
2022/08/13 23:21:23;;;;;;;7.50;4.47;;;24.00;51.40;;;;;;5093317;28;20039;-38
2022/08/13 23:23:49;;;;;;;5.20;4.35;;;23.90;51.60;;;;;;5092980;28;20047;-39
2022/08/13 23:26:16;;;;;;;7.20;4.68;;;23.90;51.80;;;;;;5092089;28;20105;-39
2022/08/13 23:28:41;;;;;;;6.03;4.68;;;23.80;51.80;;;;;;5092909;28;20046;-39
2022/08/13 23:31:07;;;;;;;5.75;4.50;;;23.80;52.00;;;;;;5093188;28;20032;-38
2022/08/13 23:33:33;;;;;;;7.97;5.03;;;23.80;52.10;;;;;;5092939;28;20027;-38
2022/08/13 23:35:59;;;;;;;7.25;4.50;;;23.70;52.40;;;;;;5093345;28;20036;-39
2022/08/13 23:38:25;;;;;;;5.35;4.30;;;23.70;52.60;;;;;;5092957;28;20047;-38
2022/08/13 23:40:51;;;;;;;5.32;4.82;;;23.70;52.60;;;;;;5092016;28;20031;-39
2022/08/13 23:43:19;;;;;;;6.45;4.80;;;23.50;53.00;;;;;;5093384;28;20024;-38
2022/08/13 23:45:46;;;;;;;7.00;5.05;;;23.60;53.10;;;;;;5093279;28;20102;-39
2022/08/13 23:48:13;;;;;;;6.40;4.35;;;23.60;53.10;;;;;;5093265;28;20028;-39
2022/08/13 23:50:43;;;;;;;4.78;4.32;;;23.60;53.10;;;;;;5093220;28;20027;-39
2022/08/13 23:53:28;;;;;;;6.32;4.72;;;23.50;53.40;;;;;;5093160;28;20476;-39
2022/08/13 23:55:55;;;;;;;7.63;5.05;;;23.50;53.40;;;;;;5092487;28;20107;-39
2022/08/13 23:58:21;;;;;;;7.00;4.88;;;23.40;53.70;;;;;;5092026;28;20024;-40
